Church View, Virginia
Current Conditions -  °F | °C
As of 1:55 PM on Thursday 30 Oct 2014 (Local Time) from KFYJ Reporting Station
Clear Clear  
Wind Chill: 65°   Ceiling: Unl
Heat Index: 65°   Visibility: 10mi
Dew Point: 37°   Wind: 3mph
Humidity: 36%   Direction: 310°NW
Pressure: 30.03"   Gusts: NA
Location:  37.68°N, 76.68°W
Report Text: KFYJ 301755Z AUTO 31003KT 10SM CLR 18/03 A3003 RMK AO2 T01820030 10185 20107
Loading
Personal Weather Stations






























Interactive Weather Map
Tropical Storm Tracking
New forecast layout! Learn more

10-Day Weather Forecast

Advertisements
Track Severe Weather on mobile